sensor_id;sensor_type;location;lat;lon;timestamp;pressure;altitude;pressure_sealevel;temperature;humidity
1371;BME280;14306;49.942;11.570;2023-12-20T00:00:55;97237.69;;;5.69;100.00
1371;BME280;14306;49.942;11.570;2023-12-20T00:02:29;97234.94;;;5.74;100.00
1371;BME280;14306;49.942;11.570;2023-12-20T00:04:04;97234.72;;;5.71;100.00
1371;BME280;14306;49.942;11.570;2023-12-20T00:05:39;97237.41;;;5.71;100.00
1371;BME280;14306;49.942;11.570;2023-12-20T00:07:14;97213.00;;;5.62;100.00
1371;BME280;14306;49.942;11.570;2023-12-20T00:08:48;97222.06;;;5.76;100.00
1371;BME280;14306;49.942;11.570;2023-12-20T00:10:23;97216.47;;;5.68;100.00
1371;BME280;14306;49.942;11.570;2023-12-20T00:11:56;97212.91;;;5.77;100.00
1371;BME280;14306;49.942;11.570;2023-12-20T00:13:31;97200.00;;;5.79;100.00
1371;BME280;14306;49.942;11.570;2023-12-20T00:15:05;97205.38;;;5.84;100.00
1371;BME280;14306;49.942;11.570;2023-12-20T00:16:39;97188.47;;;5.79;100.00
1371;BME280;14306;49.942;11.570;2023-12-20T00:18:12;97197.81;;;5.86;100.00
1371;BME280;14306;49.942;11.570;2023-12-20T00:19:48;97200.50;;;5.91;100.00
1371;BME280;14306;49.942;11.570;2023-12-20T00:21:22;97185.00;;;5.73;100.00
1371;BME280;14306;49.942;11.570;2023-12-20T00:22:57;97217.19;;;5.83;100.00
1371;BME280;14306;49.942;11.570;2023-12-20T00:24:30;97193.81;;;5.84;100.00
1371;BME280;14306;49.942;11.570;2023-12-20T00:26:05;97173.44;;;5.78;100.00
1371;BME280;14306;49.942;11.570;2023-12-20T00:27:40;97197.56;;;5.88;100.00
1371;BME280;14306;49.942;11.570;2023-12-20T00:29:13;97191.59;;;5.96;100.00
1371;BME280;14306;49.942;11.570;2023-12-20T00:30:48;97186.22;;;5.96;100.00
1371;BME280;14306;49.942;11.570;2023-12-20T00:32:21;97186.53;;;5.89;100.00
1371;BME280;14306;49.942;11.570;2023-12-20T00:33:55;97189.44;;;5.93;100.00
1371;BME280;14306;49.942;11.570;2023-12-20T00:35:31;97191.59;;;5.96;100.00
1371;BME280;14306;49.942;11.570;2023-12-20T00:37:05;97187.63;;;5.88;100.00
1371;BME280;14306;49.942;11.570;2023-12-20T00:38:39;97196.72;;;5.92;100.00
1371;BME280;14306;49.942;11.570;2023-12-20T00:40:13;97192.72;;;5.85;100.00
1371;BME280;14306;49.942;11.570;2023-12-20T00:41:47;97191.84;;;5.94;100.00
1371;BME280;14306;49.942;11.570;2023-12-20T00:43:21;97188.72;;;5.82;100.00
1371;BME280;14306;49.942;11.570;2023-12-20T00:44:54;97191.13;;;5.84;100.00
1371;BME280;14306;49.942;11.570;2023-12-20T00:46:29;97191.66;;;5.86;100.00
1371;BME280;14306;49.942;11.570;2023-12-20T00:48:02;97189.00;;;5.76;100.00
1371;BME280;14306;49.942;11.570;2023-12-20T00:49:37;97184.66;;;5.85;100.00
1371;BME280;14306;49.942;11.570;2023-12-20T00:51:11;97194.28;;;5.96;100.00
1371;BME280;14306;49.942;11.570;2023-12-20T00:52:46;97188.47;;;5.74;100.00
1371;BME280;14306;49.942;11.570;2023-12-20T00:54:19;97187.13;;;5.81;100.00
1371;BME280;14306;49.942;11.570;2023-12-20T00:55:54;97182.34;;;5.68;100.00
1371;BME280;14306;49.942;11.570;2023-12-20T00:57:27;97175.91;;;5.64;100.00
1371;BME280;14306;49.942;11.570;2023-12-20T00:59:01;97173.47;;;5.68;100.00
1371;BME280;14306;49.942;11.570;2023-12-20T01:00:34;97178.53;;;5.74;100.00
1371;BME280;14306;49.942;11.570;2023-12-20T01:02:09;97173.97;;;5.75;100.00
1371;BME280;14306;49.942;11.570;2023-12-20T01:03:43;97183.19;;;5.64;100.00
1371;BME280;14306;49.942;11.570;2023-12-20T01:05:17;97170.03;;;5.62;100.00
1371;BME280;14306;49.942;11.570;2023-12-20T01:06:52;97167.66;;;5.51;100.00
1371;BME280;14306;49.942;11.570;2023-12-20T01:08:27;97176.78;;;5.55;100.00
1371;BME280;14306;49.942;11.570;2023-12-20T01:10:00;97164.97;;;5.51;100.00
1371;BME280;14306;49.942;11.570;2023-12-20T01:11:35;97170.06;;;5.52;100.00
1371;BME280;14306;49.942;11.570;2023-12-20T01:13:09;97161.47;;;5.55;100.00
1371;BME280;14306;49.942;11.570;2023-12-20T01:14:43;97162.84;;;5.53;100.00
1371;BME280;14306;49.942;11.570;2023-12-20T01:16:16;97173.78;;;5.61;100.00
1371;BME280;14306;49.942;11.570;2023-12-20T01:17:51;97162.78;;;5.58;100.00
1371;BME280;14306;49.942;11.570;2023-12-20T01:19:25;97158.22;;;5.58;100.00
1371;BME280;14306;49.942;11.570;2023-12-20T01:21:01;97170.06;;;5.57;100.00
1371;BME280;14306;49.942;11.570;2023-12-20T01:22:37;97157.41;;;5.63;100.00
1371;BME280;14306;49.942;11.570;2023-12-20T01:24:12;97169.22;;;5.62;100.00
1371;BME280;14306;49.942;11.570;2023-12-20T01:25:45;97165.28;;;5.49;100.00
1371;BME280;14306;49.942;11.570;2023-12-20T01:27:20;97152.84;;;5.58;100.00
1371;BME280;14306;49.942;11.570;2023-12-20T01:28:54;97149.63;;;5.56;100.00
1371;BME280;14306;49.942;11.570;2023-12-20T01:30:27;97148.53;;;5.62;100.00
1371;BME280;14306;49.942;11.570;2023-12-20T01:32:02;97153.19;;;5.52;100.00
1371;BME280;14306;49.942;11.570;2023-12-20T01:33:36;97137.03;;;5.57;100.00
1371;BME280;14306;49.942;11.570;2023-12-20T01:35:11;97142.34;;;5.62;100.00
1371;BME280;14306;49.942;11.570;2023-12-20T01:36:46;97135.66;;;5.59;100.00
1371;BME280;14306;49.942;11.570;2023-12-20T01:38:22;97139.47;;;5.53;100.00
1371;BME280;14306;49.942;11.570;2023-12-20T01:39:55;97108.94;;;5.39;100.00
1371;BME280;14306;49.942;11.570;2023-12-20T01:41:29;97137.34;;;5.50;100.00
1371;BME280;14306;49.942;11.570;2023-12-20T01:43:07;97135.19;;;5.47;100.00
1371;BME280;14306;49.942;11.570;2023-12-20T01:44:42;97130.94;;;5.41;100.00
1371;BME280;14306;49.942;11.570;2023-12-20T01:46:16;97123.38;;;5.48;100.00
1371;BME280;14306;49.942;11.570;2023-12-20T01:47:51;97121.50;;;5.49;100.00
1371;BME280;14306;49.942;11.570;2023-12-20T01:49:25;97137.63;;;5.49;100.00
1371;BME280;14306;49.942;11.570;2023-12-20T01:51:00;97134.94;;;5.49;100.00
1371;BME280;14306;49.942;11.570;2023-12-20T01:52:34;97131.66;;;5.57;100.00
1371;BME280;14306;49.942;11.570;2023-12-20T01:54:10;97127.09;;;5.57;100.00
1371;BME280;14306;49.942;11.570;2023-12-20T01:55:44;97122.00;;;5.56;100.00
1371;BME280;14306;49.942;11.570;2023-12-20T01:57:19;97125.00;;;5.49;100.00
1371;BME280;14306;49.942;11.570;2023-12-20T01:58:53;97127.41;;;5.46;100.00
1371;BME280;14306;49.942;11.570;2023-12-20T02:00:29;97126.06;;;5.53;100.00
1371;BME280;14306;49.942;11.570;2023-12-20T02:02:03;97088.66;;;5.18;100.00
1371;BME280;14306;49.942;11.570;2023-12-20T02:03:39;97119.13;;;5.42;100.00
1371;BME280;14306;49.942;11.570;2023-12-20T02:05:13;97112.63;;;5.48;100.00
1371;BME280;14306;49.942;11.570;2023-12-20T02:06:48;97125.56;;;5.46;100.00
1371;BME280;14306;49.942;11.570;2023-12-20T02:08:25;97120.09;;;5.61;100.00
1371;BME280;14306;49.942;11.570;2023-12-20T02:10:01;97122.00;;;5.56;100.00
1371;BME280;14306;49.942;11.570;2023-12-20T02:11:36;97123.63;;;5.52;100.00
1371;BME280;14306;49.942;11.570;2023-12-20T02:13:10;97121.50;;;5.49;100.00
1371;BME280;14306;49.942;11.570;2023-12-20T02:14:43;97120.09;;;5.56;100.00
1371;BME280;14306;49.942;11.570;2023-12-20T02:16:18;97122.81;;;5.51;100.00
1371;BME280;14306;49.942;11.570;2023-12-20T02:17:53;97111.84;;;5.48;100.00
1371;BME280;14306;49.942;11.570;2023-12-20T02:19:27;97113.44;;;5.49;100.00
1371;BME280;14306;49.942;11.570;2023-12-20T02:21:04;97114.00;;;5.46;100.00
1371;BME280;14306;49.942;11.570;2023-12-20T02:22:39;97112.91;;;5.47;100.00
1371;BME280;14306;49.942;11.570;2023-12-20T02:24:13;97109.44;;;5.46;100.00
1371;BME280;14306;49.942;11.570;2023-12-20T02:25:47;97103.34;;;5.36;100.00
1371;BME280;14306;49.942;11.570;2023-12-20T02:27:22;97099.81;;;5.40;100.00
1371;BME280;14306;49.942;11.570;2023-12-20T02:28:56;97102.81;;;5.34;100.00
1371;BME280;14306;49.942;11.570;2023-12-20T02:30:30;97098.75;;;5.36;100.00
1371;BME280;14306;49.942;11.570;2023-12-20T02:32:05;97099.56;;;5.37;100.00
1371;BME280;14306;49.942;11.570;2023-12-20T02:33:39;97103.81;;;5.43;100.00
1371;BME280;14306;49.942;11.570;2023-12-20T02:35:15;97108.63;;;5.46;100.00
1371;BME280;14306;49.942;11.570;2023-12-20T02:36:48;97109.22;;;5.38;100.00
1371;BME280;14306;49.942;11.570;2023-12-20T02:38:24;97107.59;;;5.42;100.00
1371;BME280;14306;49.942;11.570;2023-12-20T02:39:58;97100.66;;;5.36;100.00
1371;BME280;14306;49.942;11.570;2023-12-20T02:41:32;97100.34;;;5.37;100.00
1371;BME280;14306;49.942;11.570;2023-12-20T02:43:05;97098.72;;;5.41;100.00
1371;BME280;14306;49.942;11.570;2023-12-20T02:44:40;97096.38;;;5.30;100.00
1371;BME280;14306;49.942;11.570;2023-12-20T02:46:15;97086.78;;;5.19;100.00
1371;BME280;14306;49.942;11.570;2023-12-20T02:47:50;97095.78;;;5.38;100.00
1371;BME280;14306;49.942;11.570;2023-12-20T02:49:23;97097.28;;;5.54;100.00
1371;BME280;14306;49.942;11.570;2023-12-20T02:50:58;97103.78;;;5.48;100.00
1371;BME280;14306;49.942;11.570;2023-12-20T02:52:31;97096.44;;;5.25;100.00
1371;BME280;14306;49.942;11.570;2023-12-20T02:54:07;97100.16;;;5.24;100.00
1371;BME280;14306;49.942;11.570;2023-12-20T02:55:40;97113.53;;;5.34;100.00
1371;BME280;14306;49.942;11.570;2023-12-20T02:57:15;97104.69;;;5.33;100.00
1371;BME280;14306;49.942;11.570;2023-12-20T02:58:48;97111.13;;;5.32;100.00
1371;BME280;14306;49.942;11.570;2023-12-20T03:00:22;97110.13;;;5.23;100.00
1371;BME280;14306;49.942;11.570;2023-12-20T03:01:56;97071.28;;;5.11;100.00
1371;BME280;14306;49.942;11.570;2023-12-20T03:03:31;97103.88;;;5.33;100.00
1371;BME280;14306;49.942;11.570;2023-12-20T03:05:05;97106.56;;;5.33;100.00
1371;BME280;14306;49.942;11.570;2023-12-20T03:06:40;97100.75;;;5.21;100.00
1371;BME280;14306;49.942;11.570;2023-12-20T03:08:13;97099.41;;;5.18;100.00
1371;BME280;14306;49.942;11.570;2023-12-20T03:09:49;97101.84;;;5.15;100.00
1371;BME280;14306;49.942;11.570;2023-12-20T03:11:42;97100.75;;;5.16;100.00
1371;BME280;14306;49.942;11.570;2023-12-20T03:13:16;97099.19;;;5.10;100.00
1371;BME280;14306;49.942;11.570;2023-12-20T03:14:49;97095.69;;;5.09;100.00
1371;BME280;14306;49.942;11.570;2023-12-20T03:16:24;97103.19;;;5.12;100.00
1371;BME280;14306;49.942;11.570;2023-12-20T03:17:58;97105.59;;;5.14;100.00
1371;BME280;14306;49.942;11.570;2023-12-20T03:19:32;97104.75;;;5.18;100.00
1371;BME280;14306;49.942;11.570;2023-12-20T03:21:06;97119.81;;;5.14;100.00
1371;BME280;14306;49.942;11.570;2023-12-20T03:22:39;97111.19;;;5.22;100.00
1371;BME280;14306;49.942;11.570;2023-12-20T03:24:14;97109.06;;;5.19;100.00
1371;BME280;14306;49.942;11.570;2023-12-20T03:25:48;97110.13;;;5.23;100.00
1371;BME280;14306;49.942;11.570;2023-12-20T03:27:23;97112.00;;;5.23;100.00
1371;BME280;14306;49.942;11.570;2023-12-20T03:28:56;97114.44;;;5.14;100.00
1371;BME280;14306;49.942;11.570;2023-12-20T03:30:30;97114.44;;;5.19;100.00
1371;BME280;14306;49.942;11.570;2023-12-20T03:32:04;97106.88;;;5.26;100.00
1371;BME280;14306;49.942;11.570;2023-12-20T03:33:39;97106.34;;;5.24;100.00
1371;BME280;14306;49.942;11.570;2023-12-20T03:35:12;97110.41;;;5.22;100.00
1371;BME280;14306;49.942;11.570;2023-12-20T03:36:47;97109.31;;;5.23;100.00
1371;BME280;14306;49.942;11.570;2023-12-20T03:38:20;97127.59;;;5.21;100.00
1371;BME280;14306;49.942;11.570;2023-12-20T03:39:56;97122.44;;;5.24;100.00
1371;BME280;14306;49.942;11.570;2023-12-20T03:41:31;97118.72;;;5.20;100.00
1371;BME280;14306;49.942;11.570;2023-12-20T03:43:05;97126.22;;;5.23;100.00
1371;BME280;14306;49.942;11.570;2023-12-20T03:44:39;97134.53;;;5.22;100.00
1371;BME280;14306;49.942;11.570;2023-12-20T03:46:13;97129.75;;;5.09;100.00
1371;BME280;14306;49.942;11.570;2023-12-20T03:47:46;97132.38;;;5.24;100.00
1371;BME280;14306;49.942;11.570;2023-12-20T03:49:21;97127.84;;;5.19;100.00
1371;BME280;14306;49.942;11.570;2023-12-20T03:50:54;97127.06;;;5.14;100.00
1371;BME280;14306;49.942;11.570;2023-12-20T03:52:28;97125.41;;;5.23;100.00
1371;BME280;14306;49.942;11.570;2023-12-20T03:54:01;97134.28;;;5.23;100.00
1371;BME280;14306;49.942;11.570;2023-12-20T03:55:35;97135.09;;;5.19;100.00
1371;BME280;14306;49.942;11.570;2023-12-20T03:57:11;97125.44;;;5.18;100.00
1371;BME280;14306;49.942;11.570;2023-12-20T03:58:44;97122.28;;;5.06;100.00
1371;BME280;14306;49.942;11.570;2023-12-20T04:00:19;97131.91;;;5.17;100.00
1371;BME280;14306;49.942;11.570;2023-12-20T04:01:52;97134.63;;;5.07;100.00
1371;BME280;14306;49.942;11.570;2023-12-20T04:03:26;97130.81;;;5.18;100.00
1371;BME280;14306;49.942;11.570;2023-12-20T04:05:00;97132.34;;;5.34;100.00
1371;BME280;14306;49.942;11.570;2023-12-20T04:06:33;97124.97;;;5.06;100.00
1371;BME280;14306;49.942;11.570;2023-12-20T04:08:08;97129.19;;;5.22;100.00
1371;BME280;14306;49.942;11.570;2023-12-20T04:09:41;97131.59;;;5.18;100.00
1371;BME280;14306;49.942;11.570;2023-12-20T04:11:15;97128.94;;;5.13;100.00
1371;BME280;14306;49.942;11.570;2023-12-20T04:12:49;97122.22;;;5.16;100.00
1371;BME280;14306;49.942;11.570;2023-12-20T04:14:23;97124.41;;;5.14;100.00
1371;BME280;14306;49.942;11.570;2023-12-20T04:15:57;97122.75;;;5.18;100.00
1371;BME280;14306;49.942;11.570;2023-12-20T04:17:32;97124.03;;;5.30;100.00
1371;BME280;14306;49.942;11.570;2023-12-20T04:19:05;97125.94;;;5.25;100.00
1371;BME280;14306;49.942;11.570;2023-12-20T04:20:39;97120.31;;;5.21;100.00
1371;BME280;14306;49.942;11.570;2023-12-20T04:22:12;97122.19;;;5.26;100.00
1371;BME280;14306;49.942;11.570;2023-12-20T04:23:47;97131.59;;;5.23;100.00
1371;BME280;14306;49.942;11.570;2023-12-20T04:25:20;97131.00;;;5.31;100.00
1371;BME280;14306;49.942;11.570;2023-12-20T04:26:54;97129.66;;;5.34;100.00
1371;BME280;14306;49.942;11.570;2023-12-20T04:28:28;97136.66;;;5.30;100.00
1371;BME280;14306;49.942;11.570;2023-12-20T04:30:05;97131.50;;;5.38;100.00
1371;BME280;14306;49.942;11.570;2023-12-20T04:31:38;97136.09;;;5.33;100.00
1371;BME280;14306;49.942;11.570;2023-12-20T04:33:12;97138.25;;;5.36;100.00
1371;BME280;14306;49.942;11.570;2023-12-20T04:34:45;97141.78;;;5.26;100.00
1371;BME280;14306;49.942;11.570;2023-12-20T04:36:20;97137.19;;;5.27;100.00
1371;BME280;14306;49.942;11.570;2023-12-20T04:37:54;97134.25;;;5.28;100.00
1371;BME280;14306;49.942;11.570;2023-12-20T04:39:27;97131.34;;;5.15;100.00
1371;BME280;14306;49.942;11.570;2023-12-20T04:41:01;97141.56;;;5.18;100.00
1371;BME280;14306;49.942;11.570;2023-12-20T04:42:36;97138.31;;;5.16;100.00
1371;BME280;14306;49.942;11.570;2023-12-20T04:44:11;97135.91;;;5.14;100.00
1371;BME280;14306;49.942;11.570;2023-12-20T04:45:44;97144.19;;;5.23;100.00
1371;BME280;14306;49.942;11.570;2023-12-20T04:47:22;97144.97;;;5.28;100.00
1371;BME280;14306;49.942;11.570;2023-12-20T04:48:55;97141.84;;;5.06;100.00
1371;BME280;14306;49.942;11.570;2023-12-20T04:50:29;97133.53;;;5.13;100.00
1371;BME280;14306;49.942;11.570;2023-12-20T04:52:03;97136.97;;;5.18;100.00
1371;BME280;14306;49.942;11.570;2023-12-20T04:53:37;97119.34;;;5.02;100.00
1371;BME280;14306;49.942;11.570;2023-12-20T04:55:10;97139.69;;;5.13;100.00
1371;BME280;14306;49.942;11.570;2023-12-20T04:56:44;97143.69;;;5.16;100.00
1371;BME280;14306;49.942;11.570;2023-12-20T04:58:18;97144.81;;;5.05;100.00
1371;BME280;14306;49.942;11.570;2023-12-20T04:59:53;97155.00;;;5.08;100.00
1371;BME280;14306;49.942;11.570;2023-12-20T05:01:28;97142.66;;;5.07;100.00
1371;BME280;14306;49.942;11.570;2023-12-20T05:03:02;97144.28;;;5.08;100.00
1371;BME280;14306;49.942;11.570;2023-12-20T05:04:36;97155.00;;;5.08;100.00
1371;BME280;14306;49.942;11.570;2023-12-20T05:06:09;97148.06;;;4.97;100.00
1371;BME280;14306;49.942;11.570;2023-12-20T05:07:43;97145.38;;;5.02;100.00
1371;BME280;14306;49.942;11.570;2023-12-20T05:09:17;97143.75;;;5.06;100.00
1371;BME280;14306;49.942;11.570;2023-12-20T05:10:52;97159.03;;;5.05;100.00
1371;BME280;14306;49.942;11.570;2023-12-20T05:12:25;97158.53;;;4.98;100.00
1371;BME280;14306;49.942;11.570;2023-12-20T05:14:00;97166.06;;;4.96;100.00
1371;BME280;14306;49.942;11.570;2023-12-20T05:15:35;97160.69;;;4.96;100.00
1371;BME280;14306;49.942;11.570;2023-12-20T05:17:09;97161.53;;;4.82;100.00
1371;BME280;14306;49.942;11.570;2023-12-20T05:18:43;97144.59;;;4.91;100.00
1371;BME280;14306;49.942;11.570;2023-12-20T05:20:17;97150.50;;;4.93;100.00
1371;BME280;14306;49.942;11.570;2023-12-20T05:21:51;97160.41;;;5.03;100.00
1371;BME280;14306;49.942;11.570;2023-12-20T05:23:24;97158.56;;;4.93;100.00
1371;BME280;14306;49.942;11.570;2023-12-20T05:24:58;97160.69;;;4.91;100.00
1371;BME280;14306;49.942;11.570;2023-12-20T05:26:32;97160.66;;;5.01;100.00
1371;BME280;14306;49.942;11.570;2023-12-20T05:28:05;97156.31;;;5.10;100.00
1371;BME280;14306;49.942;11.570;2023-12-20T05:29:38;97168.19;;;4.99;100.00
1371;BME280;14306;49.942;11.570;2023-12-20T05:31:14;97164.69;;;5.04;100.00
1371;BME280;14306;49.942;11.570;2023-12-20T05:32:48;97167.63;;;5.07;100.00
1371;BME280;14306;49.942;11.570;2023-12-20T05:34:22;97169.25;;;5.03;100.00
1371;BME280;14306;49.942;11.570;2023-12-20T05:35:56;97163.59;;;5.10;100.00
1371;BME280;14306;49.942;11.570;2023-12-20T05:37:29;97170.84;;;5.09;100.00
1371;BME280;14306;49.942;11.570;2023-12-20T05:39:04;97168.41;;;5.13;100.00
1371;BME280;14306;49.942;11.570;2023-12-20T05:40:37;97164.94;;;5.02;100.00
1371;BME280;14306;49.942;11.570;2023-12-20T05:42:11;97164.41;;;5.05;100.00
1371;BME280;14306;49.942;11.570;2023-12-20T05:43:44;97163.09;;;4.93;100.00
1371;BME280;14306;49.942;11.570;2023-12-20T05:45:19;97163.84;;;5.13;100.00
1371;BME280;14306;49.942;11.570;2023-12-20T05:46:54;97172.16;;;5.12;100.00
1371;BME280;14306;49.942;11.570;2023-12-20T05:48:27;97168.69;;;5.11;100.00
1371;BME280;14306;49.942;11.570;2023-12-20T05:50:02;97171.13;;;5.03;100.00
1371;BME280;14306;49.942;11.570;2023-12-20T05:51:35;97175.94;;;5.01;100.00
1371;BME280;14306;49.942;11.570;2023-12-20T05:53:09;97175.91;;;5.21;100.00
1371;BME280;14306;49.942;11.570;2023-12-20T05:54:42;97182.34;;;5.15;100.00
1371;BME280;14306;49.942;11.570;2023-12-20T05:56:16;97181.25;;;5.16;100.00
1371;BME280;14306;49.942;11.570;2023-12-20T05:57:50;97190.13;;;5.16;100.00
1371;BME280;14306;49.942;11.570;2023-12-20T05:59:24;97181.00;;;5.17;100.00
1371;BME280;14306;49.942;11.570;2023-12-20T06:00:57;97174.56;;;5.13;100.00
1371;BME280;14306;49.942;11.570;2023-12-20T06:02:33;97180.25;;;5.07;100.00
1371;BME280;14306;49.942;11.570;2023-12-20T06:04:06;97175.59;;;5.27;100.00
1371;BME280;14306;49.942;11.570;2023-12-20T06:05:40;97183.13;;;5.20;100.00
1371;BME280;14306;49.942;11.570;2023-12-20T06:07:14;97179.91;;;5.23;100.00
1371;BME280;14306;49.942;11.570;2023-12-20T06:08:48;97181.25;;;5.16;100.00
1371;BME280;14306;49.942;11.570;2023-12-20T06:10:22;97176.44;;;5.18;100.00
1371;BME280;14306;49.942;11.570;2023-12-20T06:11:56;97187.19;;;5.08;100.00
1371;BME280;14306;49.942;11.570;2023-12-20T06:13:29;97183.44;;;5.09;100.00
1371;BME280;14306;49.942;11.570;2023-12-20T06:15:04;97188.53;;;5.10;100.00
1371;BME280;14306;49.942;11.570;2023-12-20T06:16:39;97191.22;;;5.15;100.00
1371;BME280;14306;49.942;11.570;2023-12-20T06:18:14;97193.31;;;5.23;100.00
1371;BME280;14306;49.942;11.570;2023-12-20T06:19:48;97191.19;;;5.20;100.00
1371;BME280;14306;49.942;11.570;2023-12-20T06:21:22;97192.84;;;5.06;100.00
1371;BME280;14306;49.942;11.570;2023-12-20T06:22:56;97197.38;;;5.16;100.00
1371;BME280;14306;49.942;11.570;2023-12-20T06:24:30;97194.69;;;5.16;100.00
1371;BME280;14306;49.942;11.570;2023-12-20T06:26:06;97198.41;;;5.20;100.00
1371;BME280;14306;49.942;11.570;2023-12-20T06:27:41;97198.69;;;5.18;100.00
1371;BME280;14306;49.942;11.570;2023-12-20T06:29:15;97197.84;;;5.28;100.00
1371;BME280;14306;49.942;11.570;2023-12-20T06:30:50;97197.38;;;5.16;100.00
1371;BME280;14306;49.942;11.570;2023-12-20T06:32:26;97200.84;;;5.21;100.00
1371;BME280;14306;49.942;11.570;2023-12-20T06:34:03;97207.31;;;5.15;100.00
1371;BME280;14306;49.942;11.570;2023-12-20T06:35:37;97200.28;;;5.24;100.00
1371;BME280;14306;49.942;11.570;2023-12-20T06:37:11;97207.03;;;5.12;100.00
1371;BME280;14306;49.942;11.570;2023-12-20T06:38:44;97209.69;;;5.22;100.00
1371;BME280;14306;49.942;11.570;2023-12-20T06:40:20;97203.53;;;5.26;100.00
1371;BME280;14306;49.942;11.570;2023-12-20T06:41:54;97204.84;;;5.29;100.00
1371;BME280;14306;49.942;11.570;2023-12-20T06:43:28;97210.75;;;5.26;100.00
1371;BME280;14306;49.942;11.570;2023-12-20T06:45:21;97207.28;;;5.20;100.00
1371;BME280;14306;49.942;11.570;2023-12-20T06:46:55;97207.59;;;5.14;100.00
1371;BME280;14306;49.942;11.570;2023-12-20T06:48:29;97212.41;;;5.12;100.00
1371;BME280;14306;49.942;11.570;2023-12-20T06:50:06;97203.78;;;5.25;100.00
1371;BME280;14306;49.942;11.570;2023-12-20T06:51:41;97209.41;;;5.28;100.00
1371;BME280;14306;49.942;11.570;2023-12-20T06:53:16;97206.41;;;5.35;100.00
1371;BME280;14306;49.942;11.570;2023-12-20T06:54:49;97207.22;;;5.35;100.00
1371;BME280;14306;49.942;11.570;2023-12-20T06:56:24;97200.03;;;5.26;100.00
1371;BME280;14306;49.942;11.570;2023-12-20T06:57:57;97183.09;;;5.30;100.00
1371;BME280;14306;49.942;11.570;2023-12-20T06:59:32;97147.81;;;4.93;100.00
1371;BME280;14306;49.942;11.570;2023-12-20T07:01:11;97206.22;;;5.26;100.00
1371;BME280;14306;49.942;11.570;2023-12-20T07:02:45;97206.97;;;5.32;100.00
1371;BME280;14306;49.942;11.570;2023-12-20T07:04:20;97217.75;;;5.22;100.00
1371;BME280;14306;49.942;11.570;2023-12-20T07:05:56;97224.38;;;5.39;100.00
1371;BME280;14306;49.942;11.570;2023-12-20T07:07:30;97236.75;;;5.35;100.00
1371;BME280;14306;49.942;11.570;2023-12-20T07:09:04;97237.88;;;5.24;100.00
1371;BME280;14306;49.942;11.570;2023-12-20T07:10:38;97241.31;;;5.35;100.00
1371;BME280;14306;49.942;11.570;2023-12-20T07:12:13;97242.09;;;5.45;100.00
1371;BME280;14306;49.942;11.570;2023-12-20T07:13:46;97238.31;;;5.46;100.00
1371;BME280;14306;49.942;11.570;2023-12-20T07:15:21;97240.75;;;5.48;100.00
1371;BME280;14306;49.942;11.570;2023-12-20T07:16:54;97249.34;;;5.45;100.00
1371;BME280;14306;49.942;11.570;2023-12-20T07:18:29;97254.41;;;5.51;100.00
1371;BME280;14306;49.942;11.570;2023-12-20T07:20:02;97256.28;;;5.51;100.00
1371;BME280;14306;49.942;11.570;2023-12-20T07:21:41;97256.00;;;5.52;100.00
1371;BME280;14306;49.942;11.570;2023-12-20T07:23:14;97253.06;;;5.49;100.00
1371;BME280;14306;49.942;11.570;2023-12-20T07:24:49;97257.34;;;5.55;100.00
1371;BME280;14306;49.942;11.570;2023-12-20T07:26:25;97265.16;;;5.51;100.00
1371;BME280;14306;49.942;11.570;2023-12-20T07:28:00;97273.72;;;5.58;100.00
1371;BME280;14306;49.942;11.570;2023-12-20T07:29:33;97269.19;;;5.49;100.00
1371;BME280;14306;49.942;11.570;2023-12-20T07:31:08;97272.66;;;5.54;100.00
1371;BME280;14306;49.942;11.570;2023-12-20T07:32:41;97260.09;;;5.45;100.00
1371;BME280;14306;49.942;11.570;2023-12-20T07:34:16;97275.00;;;5.66;100.00
1371;BME280;14306;49.942;11.570;2023-12-20T07:35:49;97275.81;;;5.66;100.00
1371;BME280;14306;49.942;11.570;2023-12-20T07:37:27;97271.59;;;5.50;100.00
1371;BME280;14306;49.942;11.570;2023-12-20T07:39:00;97281.22;;;5.56;100.00
1371;BME280;14306;49.942;11.570;2023-12-20T07:40:35;97271.06;;;5.48;100.00
1371;BME280;14306;49.942;11.570;2023-12-20T07:42:10;97282.06;;;5.52;100.00
1371;BME280;14306;49.942;11.570;2023-12-20T07:43:44;97274.25;;;5.55;100.00
1371;BME280;14306;49.942;11.570;2023-12-20T07:45:18;97284.97;;;5.60;100.00
1371;BME280;14306;49.942;11.570;2023-12-20T07:46:52;97286.38;;;5.43;100.00
1371;BME280;14306;49.942;11.570;2023-12-20T07:48:25;97280.78;;;5.29;100.00
1371;BME280;14306;49.942;11.570;2023-12-20T07:50:00;97279.72;;;5.25;100.00
1371;BME280;14306;49.942;11.570;2023-12-20T07:51:35;97295.06;;;5.25;100.00
1371;BME280;14306;49.942;11.570;2023-12-20T07:53:10;97294.25;;;5.24;100.00
1371;BME280;14306;49.942;11.570;2023-12-20T07:54:44;97294.28;;;5.04;100.00
1371;BME280;14306;49.942;11.570;2023-12-20T07:56:19;97308.50;;;5.15;100.00
1371;BME280;14306;49.942;11.570;2023-12-20T07:57:53;97302.28;;;5.29;100.00
1371;BME280;14306;49.942;11.570;2023-12-20T07:59:27;97299.28;;;5.46;100.00
1371;BME280;14306;49.942;11.570;2023-12-20T08:01:04;97300.00;;;5.66;100.00
1371;BME280;14306;49.942;11.570;2023-12-20T08:02:38;97312.25;;;5.97;100.00
1371;BME280;14306;49.942;11.570;2023-12-20T08:04:13;97312.19;;;6.46;100.00
1371;BME280;14306;49.942;11.570;2023-12-20T08:05:47;97311.97;;;6.76;100.00
1371;BME280;14306;49.942;11.570;2023-12-20T08:07:21;97318.28;;;6.95;100.00
1371;BME280;14306;49.942;11.570;2023-12-20T08:08:57;97325.16;;;6.77;100.00
1371;BME280;14306;49.942;11.570;2023-12-20T08:10:38;97326.88;;;6.63;100.00
1371;BME280;14306;49.942;11.570;2023-12-20T08:12:11;97318.25;;;6.28;100.00
1371;BME280;14306;49.942;11.570;2023-12-20T08:13:46;97315.94;;;6.11;100.00
1371;BME280;14306;49.942;11.570;2023-12-20T08:15:20;97318.47;;;5.88;100.00
1371;BME280;14306;49.942;11.570;2023-12-20T08:16:54;97327.66;;;5.82;100.00
1371;BME280;14306;49.942;11.570;2023-12-20T08:18:28;97334.53;;;6.03;100.00
1371;BME280;14306;49.942;11.570;2023-12-20T08:20:02;97337.06;;;6.66;100.00